createdAt,value
2022-12-03T00:00:35.833Z,95639.78
2022-12-03T00:01:37.706Z,95641.28
2022-12-03T00:02:40.884Z,95631.28
2022-12-03T00:03:43.484Z,95642.09
2022-12-03T00:04:46.503Z,95647.47
2022-12-03T00:05:49.810Z,95646.69
2022-12-03T00:06:52.791Z,95644.34
2022-12-03T00:07:54.693Z,95645.13
2022-12-03T00:08:57.771Z,95644.75
2022-12-03T00:09:59.755Z,95638.22
2022-12-03T00:11:02.716Z,95650.56
2022-12-03T00:12:04.933Z,95649.03
2022-12-03T00:13:07.815Z,95649.00
2022-12-03T00:14:09.726Z,95648.22
2022-12-03T00:15:12.711Z,95640.84
2022-12-03T00:16:14.724Z,95643.56
2022-12-03T00:17:18.015Z,95646.25
2022-12-03T00:18:19.890Z,95645.13
2022-12-03T00:19:22.777Z,95644.34
2022-12-03T00:20:26.253Z,95644.31
2022-12-03T00:21:29.545Z,95642.78
2022-12-03T00:22:32.433Z,95641.97
2022-12-03T00:23:38.639Z,95645.06
2022-12-03T00:24:44.706Z,95644.72
2022-12-03T00:25:47.641Z,95640.47
2022-12-03T00:26:49.507Z,95643.19
2022-12-03T00:27:52.447Z,95646.28
2022-12-03T00:28:54.887Z,95640.50
2022-12-03T00:29:57.768Z,95643.63
2022-12-03T00:30:59.675Z,95634.34
2022-12-03T00:32:02.679Z,95632.41
2022-12-03T00:33:04.637Z,95634.75
2022-12-03T00:34:07.514Z,95637.09
2022-12-03T00:35:09.964Z,95638.22
2022-12-03T00:36:12.798Z,95628.19
2022-12-03T00:37:16.000Z,95631.66
2022-12-03T00:38:18.950Z,95634.34
2022-12-03T00:39:20.819Z,95635.09
2022-12-03T00:40:23.670Z,95623.50
2022-12-03T00:41:25.967Z,95630.47
2022-12-03T00:42:30.068Z,95631.25
2022-12-03T00:43:32.191Z,95630.47
2022-12-03T00:44:35.166Z,95634.31
2022-12-03T00:45:37.082Z,95631.19
2022-12-03T00:46:39.997Z,95627.31
2022-12-03T00:47:41.914Z,95638.13
2022-12-03T00:48:44.760Z,95639.72
2022-12-03T00:49:48.499Z,95623.91
2022-12-03T00:50:51.333Z,95623.91
2022-12-03T00:51:53.246Z,95638.19
2022-12-03T00:52:57.544Z,95630.84
2022-12-03T00:53:59.421Z,95632.00
2022-12-03T00:55:02.267Z,95632.78
2022-12-03T00:56:04.303Z,95632.00
2022-12-03T00:57:07.218Z,95639.66
2022-12-03T00:58:09.457Z,95637.38
2022-12-03T00:59:12.371Z,95629.25
2022-12-03T01:00:15.789Z,95626.16
2022-12-03T01:01:18.665Z,95631.19
2022-12-03T01:02:21.646Z,95635.44
2022-12-03T01:03:23.537Z,95628.91
2022-12-03T01:04:26.515Z,95632.00
2022-12-03T01:05:28.608Z,95626.59
2022-12-03T01:06:31.459Z,95637.41
2022-12-03T01:07:33.472Z,95634.72
2022-12-03T01:08:37.747Z,95638.94
2022-12-03T01:09:39.597Z,95635.84
2022-12-03T01:10:42.531Z,95633.13
2022-12-03T01:11:44.605Z,95629.66
2022-12-03T01:12:47.498Z,95632.38
2022-12-03T01:13:49.465Z,95630.44
2022-12-03T01:14:52.825Z,95635.84
2022-12-03T01:15:55.147Z,95637.41
2022-12-03T01:16:58.118Z,95638.94
2022-12-03T01:17:59.987Z,95638.19
2022-12-03T01:19:03.237Z,95630.44
2022-12-03T01:20:07.787Z,95635.84
2022-12-03T01:21:10.625Z,95641.25
2022-12-03T01:22:12.563Z,95630.44
2022-12-03T01:23:15.407Z,95640.47
2022-12-03T01:24:19.228Z,95636.59
2022-12-03T01:25:22.209Z,95636.59
2022-12-03T01:26:25.952Z,95633.91
2022-12-03T01:27:28.861Z,95633.91
2022-12-03T01:28:31.556Z,95636.59
2022-12-03T01:29:34.460Z,95628.50
2022-12-03T01:30:57.030Z,95633.91
2022-12-03T01:32:17.586Z,95631.84
2022-12-03T01:33:20.502Z,95634.94
2022-12-03T01:34:22.389Z,95635.69
2022-12-03T01:35:25.275Z,95633.41
2022-12-03T01:36:27.346Z,95643.06
2022-12-03T01:37:30.279Z,95639.97
2022-12-03T01:38:32.121Z,95648.44
2022-12-03T01:39:36.533Z,95634.94
2022-12-03T01:40:38.454Z,95633.75
2022-12-03T01:41:42.078Z,95640.34
2022-12-03T01:42:44.022Z,95635.34
2022-12-03T01:43:47.566Z,95633.81
2022-12-03T01:44:51.616Z,95632.25
2022-12-03T01:45:54.787Z,95638.44
2022-12-03T01:46:58.653Z,95643.44
2022-12-03T01:48:01.705Z,95641.91
2022-12-03T01:49:03.724Z,95641.91
2022-12-03T01:50:09.624Z,95645.03
2022-12-03T01:51:13.022Z,95641.94
2022-12-03T01:52:19.308Z,95630.75
2022-12-03T01:53:22.055Z,95635.34
2022-12-03T01:54:28.259Z,95637.25
2022-12-03T01:55:31.832Z,95639.56
2022-12-03T01:56:34.748Z,95641.09
2022-12-03T01:57:42.172Z,95644.22
2022-12-03T01:58:45.001Z,95637.66
2022-12-03T01:59:48.575Z,95640.75
2022-12-03T02:00:50.699Z,95642.31
2022-12-03T02:01:53.662Z,95639.22
2022-12-03T02:02:57.978Z,95640.78
2022-12-03T02:04:00.861Z,95637.31
2022-12-03T02:05:14.534Z,95641.19
2022-12-03T02:06:20.264Z,95639.63
2022-12-03T02:07:25.585Z,95640.78
2022-12-03T02:08:30.222Z,95632.69
2022-12-03T02:09:32.029Z,95642.31
2022-12-03T02:10:38.887Z,95646.59
2022-12-03T02:11:45.145Z,95641.56
2022-12-03T02:12:51.779Z,95639.63
2022-12-03T02:13:57.161Z,95637.69
2022-12-03T02:15:00.714Z,95636.56
2022-12-03T02:16:03.659Z,95632.69
2022-12-03T02:17:06.647Z,95641.19
2022-12-03T02:18:09.399Z,95635.78
2022-12-03T02:19:20.055Z,95637.38
2022-12-03T02:20:23.640Z,95640.47
2022-12-03T02:21:31.649Z,95648.59
2022-12-03T02:22:41.437Z,95643.19
2022-12-03T02:23:50.682Z,95642.00
2022-12-03T02:24:57.187Z,95636.59
2022-12-03T02:26:00.514Z,95635.06
2022-12-03T02:27:03.809Z,95640.84
2022-12-03T02:28:09.036Z,95650.47
2022-12-03T02:29:12.452Z,95635.78
2022-12-03T02:30:17.882Z,95641.53
2022-12-03T02:31:20.863Z,95647.31
2022-12-03T02:32:23.533Z,95638.03
2022-12-03T02:33:26.746Z,95645.34
2022-12-03T02:34:37.310Z,95648.03
2022-12-03T02:35:40.933Z,95646.50
2022-12-03T02:36:42.798Z,95645.34
2022-12-03T02:37:47.125Z,95654.97
2022-12-03T02:38:49.874Z,95645.69
2022-12-03T02:39:55.904Z,95651.88
2022-12-03T02:41:02.758Z,95651.50
2022-12-03T02:42:26.578Z,95648.81
2022-12-03T02:43:29.514Z,95651.91
2022-12-03T02:44:31.452Z,95650.75
2022-12-03T02:45:39.258Z,95638.81
2022-12-03T02:46:41.571Z,95647.31
2022-12-03T02:47:47.166Z,95643.44
2022-12-03T02:48:49.066Z,95640.75
2022-12-03T02:49:52.998Z,95639.56
2022-12-03T02:50:57.638Z,95635.34
2022-12-03T02:52:00.713Z,95639.94
2022-12-03T02:53:05.993Z,95636.09
2022-12-03T02:54:08.841Z,95640.34
2022-12-03T02:55:12.629Z,95634.94
2022-12-03T02:56:19.905Z,95634.94
2022-12-03T02:57:21.997Z,95638.44
2022-12-03T02:58:26.581Z,95636.50
2022-12-03T02:59:28.495Z,95637.66
2022-12-03T03:00:32.045Z,95640.34
2022-12-03T03:01:35.088Z,95634.94
2022-12-03T03:02:39.757Z,95640.34
2022-12-03T03:03:42.078Z,95636.88
2022-12-03T03:04:45.650Z,95639.56
2022-12-03T03:05:48.927Z,95631.06
2022-12-03T03:06:52.599Z,95631.84
2022-12-03T03:07:54.755Z,95631.84
2022-12-03T03:08:58.264Z,95628.78
2022-12-03T03:10:00.902Z,95634.53
2022-12-03T03:11:04.219Z,95633.38
2022-12-03T03:12:07.718Z,95635.66
2022-12-03T03:13:13.286Z,95641.06
2022-12-03T03:14:15.442Z,95640.28
2022-12-03T03:15:18.401Z,95647.28
2022-12-03T03:16:20.311Z,95643.41
2022-12-03T03:17:23.214Z,95645.34
2022-12-03T03:18:25.335Z,95638.00
2022-12-03T03:19:29.878Z,95641.88
2022-12-03T03:20:32.107Z,95641.88
2022-12-03T03:21:35.005Z,95646.47
2022-12-03T03:22:38.991Z,95634.91
2022-12-03T03:23:41.799Z,95634.53
2022-12-03T03:24:43.722Z,95630.66
2022-12-03T03:25:48.688Z,95629.53
2022-12-03T03:26:50.953Z,95630.28
2022-12-03T03:27:55.216Z,95628.75
2022-12-03T03:29:00.306Z,95627.19
2022-12-03T03:30:04.676Z,95628.75
2022-12-03T03:31:09.318Z,95624.13
2022-12-03T03:32:12.260Z,95625.66
2022-12-03T03:33:15.949Z,95622.59
2022-12-03T03:34:18.973Z,95622.19
2022-12-03T03:35:21.152Z,95628.75
2022-12-03T03:36:24.409Z,95627.19
2022-12-03T03:37:27.543Z,95624.09
2022-12-03T03:38:31.375Z,95622.53
2022-12-03T03:39:33.271Z,95623.31
2022-12-03T03:40:39.467Z,95624.84
2022-12-03T03:41:42.829Z,95628.72
2022-12-03T03:42:45.731Z,95624.09
2022-12-03T03:43:50.156Z,95633.75
2022-12-03T03:44:54.166Z,95625.66
2022-12-03T03:45:56.740Z,95630.66
2022-12-03T03:46:59.971Z,95629.88
2022-12-03T03:48:02.127Z,95627.94
2022-12-03T03:49:06.198Z,95622.53
2022-12-03T03:50:10.460Z,95624.09
2022-12-03T03:51:14.474Z,95623.31
2022-12-03T03:52:17.274Z,95624.09
2022-12-03T03:53:21.142Z,95623.31
2022-12-03T03:54:23.721Z,95625.25
2022-12-03T03:55:26.869Z,95632.59
2022-12-03T03:56:28.843Z,95627.19
2022-12-03T03:57:31.737Z,95629.09
2022-12-03T03:58:33.826Z,95626.38
2022-12-03T03:59:38.113Z,95619.44
2022-12-03T04:00:42.024Z,95631.03
2022-12-03T04:01:46.039Z,95618.66
2022-12-03T04:02:47.976Z,95620.97
2022-12-03T04:03:50.910Z,95623.66
2022-12-03T04:04:53.533Z,95621.34
2022-12-03T04:05:56.820Z,95624.03
2022-12-03T04:06:59.581Z,95615.94
2022-12-03T04:08:02.441Z,95620.16
2022-12-03T04:09:04.374Z,95617.47
2022-12-03T04:10:36.719Z,95616.69
2022-12-03T04:11:57.286Z,95622.50
2022-12-03T04:12:59.852Z,95618.63
2022-12-03T04:14:02.391Z,95620.97
2022-12-03T04:15:08.170Z,95621.75
2022-12-03T04:16:10.160Z,95617.88
2022-12-03T04:17:13.104Z,95612.47
2022-12-03T04:18:33.518Z,95614.41
2022-12-03T04:19:36.443Z,95610.13
2022-12-03T04:20:38.602Z,95614.72
2022-12-03T04:21:58.882Z,95617.41
2022-12-03T04:23:00.729Z,95611.63
2022-12-03T04:24:04.162Z,95607.38
2022-12-03T04:25:21.932Z,95610.06
2022-12-03T04:26:46.879Z,95614.72
2022-12-03T04:28:11.272Z,95619.28
2022-12-03T04:29:14.540Z,95616.22
2022-12-03T04:30:18.193Z,95627.03
2022-12-03T04:31:38.782Z,95623.94
2022-12-03T04:32:59.144Z,95623.94
2022-12-03T04:34:19.484Z,95617.03
2022-12-03T04:35:39.820Z,95623.97
2022-12-03T04:36:45.107Z,95618.59
2022-12-03T04:37:47.978Z,95621.28
2022-12-03T04:38:49.886Z,95624.75
2022-12-03T04:39:52.886Z,95617.81
2022-12-03T04:41:00.815Z,95631.31
2022-12-03T04:42:03.801Z,95628.25
2022-12-03T04:43:05.858Z,95631.72
2022-12-03T04:44:26.368Z,95627.09
2022-12-03T04:45:30.603Z,95629.81
2022-12-03T04:46:32.724Z,95634.44
2022-12-03T04:47:39.907Z,95627.84
2022-12-03T04:48:41.973Z,95618.94
2022-12-03T04:49:47.309Z,95624.69
2022-12-03T04:50:49.440Z,95630.09
2022-12-03T04:51:52.327Z,95625.03
2022-12-03T04:52:54.134Z,95624.69
2022-12-03T04:53:57.019Z,95620.78
2022-12-03T04:54:59.853Z,95631.53
2022-12-03T04:56:01.695Z,95633.84
2022-12-03T04:57:05.186Z,95626.94
2022-12-03T04:58:07.208Z,95628.88
2022-12-03T04:59:15.616Z,95633.16
2022-12-03T05:00:18.367Z,95637.03
2022-12-03T05:01:22.797Z,95634.72
2022-12-03T05:02:25.763Z,95640.13
2022-12-03T05:03:27.716Z,95636.69
2022-12-03T05:04:30.632Z,95637.44
2022-12-03T05:05:32.452Z,95637.09
2022-12-03T05:06:35.365Z,95638.66
2022-12-03T05:07:38.459Z,95637.50
2022-12-03T05:08:40.380Z,95640.19
2022-12-03T05:09:43.216Z,95637.09
2022-12-03T05:10:45.058Z,95634.78
2022-12-03T05:11:48.221Z,95633.97
2022-12-03T05:12:50.107Z,95633.22
2022-12-03T05:13:53.771Z,95632.44
2022-12-03T05:14:56.006Z,95637.84
2022-12-03T05:15:59.201Z,95638.59
2022-12-03T05:17:02.508Z,95638.59
2022-12-03T05:18:05.718Z,95637.09
2022-12-03T05:19:08.662Z,95643.25
2022-12-03T05:20:30.246Z,95643.25
2022-12-03T05:21:33.243Z,95642.88
2022-12-03T05:22:35.128Z,95635.94
2022-12-03T05:23:37.989Z,95642.88
2022-12-03T05:24:39.959Z,95636.69
2022-12-03T05:25:42.981Z,95634.72
2022-12-03T05:26:45.819Z,95640.13
2022-12-03T05:27:47.658Z,95635.50
2022-12-03T05:28:50.603Z,95631.97
2022-12-03T05:29:53.008Z,95640.06
2022-12-03T05:30:56.024Z,95636.56
2022-12-03T05:31:57.877Z,95633.81
2022-12-03T05:33:02.039Z,95637.31
2022-12-03T05:34:03.905Z,95641.13
2022-12-03T05:35:07.495Z,95643.03
2022-12-03T05:36:10.238Z,95646.88
2022-12-03T05:37:13.127Z,95652.28
2022-12-03T05:38:15.280Z,95646.53
2022-12-03T05:39:18.117Z,95654.25
2022-12-03T05:40:21.021Z,95647.72
2022-12-03T05:41:41.587Z,95651.94
2022-12-03T05:42:57.023Z,95648.53
2022-12-03T05:43:58.974Z,95650.47
2022-12-03T05:45:00.831Z,95649.31
2022-12-03T05:46:03.724Z,95650.47
2022-12-03T05:47:05.650Z,95650.47
2022-12-03T05:48:11.843Z,95650.47
2022-12-03T05:49:13.700Z,95645.00
2022-12-03T05:50:16.958Z,95647.66
2022-12-03T05:51:19.868Z,95645.31
2022-12-03T05:52:21.736Z,95653.75
2022-12-03T05:53:24.606Z,95650.34
2022-12-03T05:54:26.486Z,95655.00
2022-12-03T05:55:29.806Z,95652.31
2022-12-03T05:56:32.915Z,95646.53
2022-12-03T05:57:35.773Z,95648.13
2022-12-03T05:58:37.602Z,95645.00
2022-12-03T05:59:40.500Z,95646.53
2022-12-03T06:00:43.138Z,95649.97
2022-12-03T06:01:46.115Z,95656.50
2022-12-03T06:02:48.256Z,95658.44
2022-12-03T06:03:52.880Z,95658.06
2022-12-03T06:04:55.336Z,95659.63
2022-12-03T06:05:58.473Z,95649.22
2022-12-03T06:07:01.425Z,95648.84
2022-12-03T06:08:04.617Z,95646.13
2022-12-03T06:09:06.895Z,95650.00
2022-12-03T06:10:12.208Z,95646.97
2022-12-03T06:11:14.079Z,95643.13
2022-12-03T06:12:17.115Z,95643.13
2022-12-03T06:13:18.989Z,95641.97
2022-12-03T06:14:22.379Z,95649.28
2022-12-03T06:15:24.645Z,95640.81
2022-12-03T06:16:27.866Z,95646.19
2022-12-03T06:17:31.170Z,95648.13
2022-12-03T06:18:34.224Z,95640.34
2022-12-03T06:19:37.412Z,95637.63
2022-12-03T06:20:40.470Z,95643.78
2022-12-03T06:21:42.317Z,95646.06
2022-12-03T06:22:45.221Z,95640.69
2022-12-03T06:23:47.068Z,95642.25
2022-12-03T06:24:50.199Z,95643.78
2022-12-03T06:25:53.118Z,95645.31
2022-12-03T06:26:55.003Z,95636.09
2022-12-03T06:28:12.953Z,95641.91
2022-12-03T06:29:14.858Z,95641.50
2022-12-03T06:30:17.993Z,95642.72
2022-12-03T06:31:19.880Z,95633.03
2022-12-03T06:32:22.890Z,95632.31
2022-12-03T06:33:24.763Z,95632.31
2022-12-03T06:34:27.827Z,95629.88
2022-12-03T06:35:31.116Z,95630.66
2022-12-03T06:36:34.026Z,95631.44
2022-12-03T06:37:35.909Z,95629.88
2022-12-03T06:38:38.803Z,95625.25
2022-12-03T06:39:40.953Z,95627.59
2022-12-03T06:40:43.718Z,95624.88
2022-12-03T06:41:45.623Z,95623.72
2022-12-03T06:42:49.017Z,95625.28
2022-12-03T06:43:50.857Z,95627.53
2022-12-03T06:44:54.000Z,95627.16
2022-12-03T06:45:56.086Z,95636.75
2022-12-03T06:47:00.451Z,95625.94
2022-12-03T06:48:02.333Z,95632.91
2022-12-03T06:49:05.293Z,95630.56
2022-12-03T06:50:08.675Z,95627.81
2022-12-03T06:51:12.830Z,95637.47
2022-12-03T06:52:14.781Z,95629.41
2022-12-03T06:53:17.773Z,95639.84
2022-12-03T06:54:19.593Z,95638.69
2022-12-03T06:55:22.412Z,95635.25
2022-12-03T06:56:25.764Z,95632.16
2022-12-03T06:57:30.250Z,95636.81
2022-12-03T06:58:32.212Z,95635.63
2022-12-03T06:59:37.439Z,95631.28
2022-12-03T07:00:39.343Z,95639.38
2022-12-03T07:01:42.292Z,95637.44
2022-12-03T07:02:45.437Z,95636.28
2022-12-03T07:03:48.554Z,95632.84
2022-12-03T07:04:51.576Z,95639.78
2022-12-03T07:05:53.424Z,95639.06
2022-12-03T07:06:57.607Z,95642.16
2022-12-03T07:07:59.684Z,95641.44
2022-12-03T07:09:02.579Z,95640.69
2022-12-03T07:10:06.458Z,95636.84
2022-12-03T07:11:29.068Z,95639.16
2022-12-03T07:12:32.728Z,95631.81
2022-12-03T07:13:34.732Z,95632.22
2022-12-03T07:14:37.635Z,95625.69
2022-12-03T07:15:39.470Z,95623.00
2022-12-03T07:16:43.428Z,95613.75
2022-12-03T07:17:45.483Z,95620.72
2022-12-03T07:18:48.362Z,95624.53
2022-12-03T07:19:51.481Z,95623.00
2022-12-03T07:20:53.380Z,95621.44
2022-12-03T07:21:57.680Z,95621.44
2022-12-03T07:22:59.545Z,95621.44
2022-12-03T07:24:02.419Z,95625.28
2022-12-03T07:25:04.808Z,95630.31
2022-12-03T07:26:07.759Z,95621.44
2022-12-03T07:27:09.650Z,95625.69
2022-12-03T07:28:12.543Z,95631.09
2022-12-03T07:29:15.422Z,95629.94
2022-12-03T07:30:17.675Z,95636.44
2022-12-03T07:31:20.621Z,95625.22
2022-12-03T07:32:23.566Z,95627.94
2022-12-03T07:33:25.410Z,95627.53
2022-12-03T07:34:28.545Z,95634.06
2022-12-03T07:35:30.344Z,95638.31
2022-12-03T07:36:33.287Z,95633.28
2022-12-03T07:37:37.866Z,95631.34
2022-12-03T07:38:39.732Z,95631.34
2022-12-03T07:39:42.612Z,95630.22
2022-12-03T07:40:45.109Z,95627.94
2022-12-03T07:41:47.909Z,95632.16
2022-12-03T07:42:49.728Z,95629.88
2022-12-03T07:43:52.547Z,95634.91
2022-12-03T07:44:54.785Z,95632.97
2022-12-03T07:45:58.541Z,95632.22
2022-12-03T07:47:01.574Z,95639.16
2022-12-03T07:48:03.725Z,95632.97
2022-12-03T07:49:06.711Z,95639.91
2022-12-03T07:50:09.790Z,95636.44
2022-12-03T07:51:15.151Z,95641.84
2022-12-03T07:52:17.573Z,95630.63
2022-12-03T07:53:22.193Z,95634.88
2022-12-03T07:54:26.028Z,95637.56
2022-12-03T07:55:27.956Z,95629.47
2022-12-03T07:56:31.094Z,95617.53
2022-12-03T07:57:32.936Z,95627.19
2022-12-03T07:58:35.789Z,95631.03
2022-12-03T07:59:37.662Z,95623.72
2022-12-03T08:00:40.592Z,95628.34
2022-12-03T08:01:42.562Z,95626.78
2022-12-03T08:02:45.536Z,95615.97
2022-12-03T08:03:47.455Z,95622.94
2022-12-03T08:04:50.650Z,95632.56
2022-12-03T08:05:52.759Z,95629.09
2022-12-03T08:06:55.726Z,95624.84
2022-12-03T08:07:57.685Z,95626.78
2022-12-03T08:09:01.912Z,95627.53
2022-12-03T08:10:04.494Z,95628.34
2022-12-03T08:11:07.742Z,95623.72
2022-12-03T08:12:17.809Z,95618.31
2022-12-03T08:13:20.792Z,95626.03
2022-12-03T08:14:24.605Z,95619.06
2022-12-03T08:15:35.252Z,95621.00
2022-12-03T08:16:44.163Z,95627.19
2022-12-03T08:17:48.622Z,95622.94
2022-12-03T08:18:53.243Z,95627.19
2022-12-03T08:19:55.054Z,95618.31
2022-12-03T08:20:58.428Z,95626.03
2022-12-03T08:22:01.545Z,95624.47
2022-12-03T08:23:11.101Z,95628.34
2022-12-03T08:24:18.052Z,95629.06
2022-12-03T08:25:23.070Z,95620.56
2022-12-03T08:26:29.160Z,95618.66
2022-12-03T08:27:31.083Z,95623.25
2022-12-03T08:28:33.991Z,95619.84
2022-12-03T08:29:35.856Z,95624.47
2022-12-03T08:30:38.931Z,95625.63
2022-12-03T08:31:42.545Z,95626.41
2022-12-03T08:32:45.068Z,95627.53
2022-12-03T08:33:49.999Z,95627.94
2022-12-03T08:34:53.168Z,95636.75
2022-12-03T08:35:56.562Z,95625.19
2022-12-03T08:37:02.185Z,95632.91
2022-12-03T08:38:11.258Z,95625.19
2022-12-03T08:39:28.990Z,95629.41
2022-12-03T08:40:36.236Z,95624.78
2022-12-03T08:41:57.765Z,95633.69
2022-12-03T08:43:00.648Z,95635.22
2022-12-03T08:44:20.527Z,95634.84
2022-12-03T08:45:41.418Z,95627.53
2022-12-03T08:46:44.432Z,95627.53
2022-12-03T08:47:46.529Z,95628.28
2022-12-03T08:48:49.781Z,95629.88
2022-12-03T08:49:56.056Z,95625.22
2022-12-03T08:51:01.616Z,95631.03
2022-12-03T08:52:14.260Z,95631.03
2022-12-03T08:53:27.826Z,95633.75
2022-12-03T08:54:32.466Z,95632.56
2022-12-03T08:55:36.593Z,95632.56
2022-12-03T08:56:40.134Z,95629.06
2022-12-03T08:57:43.428Z,95627.53
2022-12-03T08:58:48.850Z,95633.69
2022-12-03T08:59:53.516Z,95631.75
2022-12-03T09:00:59.313Z,95629.75
2022-12-03T09:02:02.268Z,95634.81
2022-12-03T09:03:10.877Z,95634.81
2022-12-03T09:04:22.734Z,95628.28
2022-12-03T09:05:30.315Z,95634.41
2022-12-03T09:06:32.290Z,95628.22
2022-12-03T09:07:35.268Z,95629.41
2022-12-03T09:08:37.498Z,95629.41
2022-12-03T09:09:42.315Z,95636.72
2022-12-03T09:10:44.153Z,95641.72
2022-12-03T09:11:47.637Z,95637.03
2022-12-03T09:12:50.685Z,95643.59
2022-12-03T09:13:52.591Z,95638.97
2022-12-03T09:14:55.801Z,95640.88
2022-12-03T09:15:57.916Z,95634.75
2022-12-03T09:17:02.286Z,95636.28
2022-12-03T09:18:04.561Z,95636.69
2022-12-03T09:19:07.546Z,95633.63
2022-12-03T09:20:10.159Z,95639.03
2022-12-03T09:21:13.050Z,95635.16
2022-12-03T09:22:17.265Z,95629.38
2022-12-03T09:23:20.320Z,95632.09
2022-12-03T09:24:22.200Z,95629.75
2022-12-03T09:25:26.402Z,95630.16
2022-12-03T09:26:28.391Z,95629.75
2022-12-03T09:27:31.520Z,95627.41
2022-12-03T09:28:33.461Z,95630.50
2022-12-03T09:29:36.408Z,95619.59
2022-12-03T09:30:38.891Z,95620.75
2022-12-03T09:31:42.014Z,95621.94
2022-12-03T09:32:45.774Z,95624.22
2022-12-03T09:33:48.742Z,95618.03
2022-12-03T09:34:51.952Z,95628.81
2022-12-03T09:35:53.988Z,95623.06
2022-12-03T09:36:56.901Z,95614.97
2022-12-03T09:37:58.899Z,95625.00
2022-12-03T09:39:03.843Z,95617.31
2022-12-03T09:40:08.377Z,95611.91
2022-12-03T09:41:11.802Z,95604.22
2022-12-03T09:42:15.710Z,95615.44
2022-12-03T09:43:18.729Z,95613.91
2022-12-03T09:44:21.717Z,95614.31
2022-12-03T09:45:23.615Z,95615.06
2022-12-03T09:46:26.642Z,95613.16
2022-12-03T09:47:30.856Z,95605.81
2022-12-03T09:48:32.844Z,95607.38
2022-12-03T09:49:39.494Z,95608.16
2022-12-03T09:50:43.591Z,95597.75
2022-12-03T09:51:46.204Z,95605.88
2022-12-03T09:52:51.099Z,95599.72
2022-12-03T09:53:53.512Z,95590.47
2022-12-03T09:55:06.607Z,95596.25
2022-12-03T09:56:18.168Z,95595.13
2022-12-03T09:57:21.222Z,95588.16
2022-12-03T09:58:23.465Z,95589.31
2022-12-03T09:59:31.534Z,95592.78
2022-12-03T10:00:33.377Z,95593.50
2022-12-03T10:01:36.866Z,95588.44
2022-12-03T10:02:38.844Z,95591.16
2022-12-03T10:03:47.217Z,95581.91
2022-12-03T10:04:49.696Z,95595.41
2022-12-03T10:05:52.832Z,95591.56
2022-12-03T10:06:57.399Z,95592.72
2022-12-03T10:08:04.656Z,95594.25
2022-12-03T10:09:12.555Z,95585.78
2022-12-03T10:10:18.000Z,95581.56
2022-12-03T10:11:25.231Z,95580.41
2022-12-03T10:12:28.139Z,95587.38
2022-12-03T10:13:34.585Z,95583.94
2022-12-03T10:14:37.491Z,95582.75
2022-12-03T10:15:39.469Z,95581.22
2022-12-03T10:16:43.054Z,95582.38
2022-12-03T10:17:47.665Z,95573.88
2022-12-03T10:18:54.833Z,95574.19
2022-12-03T10:19:57.809Z,95574.59
2022-12-03T10:20:59.925Z,95566.84
2022-12-03T10:22:02.903Z,95564.13
2022-12-03T10:23:05.832Z,95561.06
2022-12-03T10:24:28.550Z,95557.22
2022-12-03T10:25:31.463Z,95568.41
2022-12-03T10:26:40.648Z,95567.25
2022-12-03T10:27:44.134Z,95563.03
2022-12-03T10:28:47.614Z,95571.88
2022-12-03T10:29:57.044Z,95564.56
2022-12-03T10:31:00.916Z,95564.56
2022-12-03T10:32:06.178Z,95557.63
2022-12-03T10:33:18.491Z,95561.88
2022-12-03T10:34:26.002Z,95559.16
2022-12-03T10:35:41.100Z,95560.69
2022-12-03T10:36:43.998Z,95558.41
2022-12-03T10:37:59.120Z,95562.69
2022-12-03T10:39:12.291Z,95556.13
2022-12-03T10:40:15.356Z,95557.69
2022-12-03T10:41:22.646Z,95552.28
2022-12-03T10:42:28.555Z,95548.03
2022-12-03T10:43:31.467Z,95547.22
2022-12-03T10:44:35.226Z,95552.59
2022-12-03T10:45:38.103Z,95546.84
2022-12-03T10:46:40.228Z,95542.56
2022-12-03T10:47:43.965Z,95542.56
2022-12-03T10:48:46.246Z,95545.66
2022-12-03T10:50:03.183Z,95548.38
2022-12-03T10:51:08.069Z,95544.91
2022-12-03T10:52:25.645Z,95550.31
2022-12-03T10:53:30.418Z,95548.38
2022-12-03T10:54:36.016Z,95550.31
2022-12-03T10:55:41.087Z,95549.13
2022-12-03T10:56:44.762Z,95552.59
2022-12-03T10:57:49.114Z,95549.53
2022-12-03T10:58:51.533Z,95544.91
2022-12-03T10:59:54.450Z,95542.63
2022-12-03T11:00:59.124Z,95538.78
2022-12-03T11:02:03.789Z,95540.31
2022-12-03T11:03:18.360Z,95529.16
2022-12-03T11:04:22.727Z,95546.50
2022-12-03T11:05:28.416Z,95534.13
2022-12-03T11:06:33.127Z,95533.72
2022-12-03T11:07:38.927Z,95539.91
2022-12-03T11:08:44.966Z,95534.50
2022-12-03T11:09:49.391Z,95529.88
2022-12-03T11:10:59.933Z,95532.59
2022-12-03T11:12:06.178Z,95537.97
2022-12-03T11:13:45.256Z,95536.41
2022-12-03T11:15:08.051Z,95535.94
2022-12-03T11:16:10.249Z,95536.75
2022-12-03T11:17:13.160Z,95540.22
2022-12-03T11:19:01.233Z,95542.56
2022-12-03T11:20:05.381Z,95543.72
2022-12-03T11:21:09.782Z,95541.78
2022-12-03T11:22:34.690Z,95546.84
2022-12-03T11:24:02.720Z,95541.03
2022-12-03T11:25:47.757Z,95545.66
2022-12-03T11:27:23.990Z,95543.34
2022-12-03T11:28:53.074Z,95534.47
2022-12-03T11:30:05.118Z,95535.63
2022-12-03T11:31:15.064Z,95539.88
2022-12-03T11:33:07.273Z,95529.06
2022-12-03T11:34:49.775Z,95539.81
2022-12-03T11:36:12.277Z,95524.78
2022-12-03T11:37:25.676Z,95532.53
2022-12-03T11:38:42.635Z,95535.63
2022-12-03T11:40:30.045Z,95532.94
2022-12-03T11:41:36.391Z,95528.66
2022-12-03T11:42:40.060Z,95532.53
2022-12-03T11:44:19.066Z,95539.06
2022-12-03T11:45:30.629Z,95536.34
2022-12-03T11:46:43.365Z,95536.34
2022-12-03T11:47:47.825Z,95544.84
2022-12-03T11:48:54.327Z,95535.63
2022-12-03T11:49:57.400Z,95538.31
2022-12-03T11:50:59.276Z,95547.97
2022-12-03T11:52:05.424Z,95542.97
2022-12-03T11:53:17.342Z,95538.34
2022-12-03T11:54:23.329Z,95537.97
2022-12-03T11:55:30.540Z,95531.00
2022-12-03T11:56:32.508Z,95539.13
2022-12-03T11:57:38.042Z,95536.41
2022-12-03T11:58:45.268Z,95533.34
2022-12-03T11:59:59.314Z,95531.00
2022-12-03T12:01:04.111Z,95534.06
2022-12-03T12:02:20.141Z,95531.78
2022-12-03T12:03:25.620Z,95526.38
2022-12-03T12:04:31.310Z,95534.06
2022-12-03T12:05:35.534Z,95517.88
2022-12-03T12:06:42.480Z,95523.25
2022-12-03T12:07:48.044Z,95519.44
2022-12-03T12:08:58.583Z,95518.63
2022-12-03T12:10:00.526Z,95521.72
2022-12-03T12:11:03.843Z,95524.03
2022-12-03T12:12:18.672Z,95523.66
2022-12-03T12:13:49.925Z,95526.31
2022-12-03T12:14:53.026Z,95516.28
2022-12-03T12:15:56.970Z,95516.69
2022-12-03T12:17:03.234Z,95512.41
2022-12-03T12:18:37.093Z,95501.63
2022-12-03T12:19:42.194Z,95508.59
2022-12-03T12:20:44.145Z,95499.31
2022-12-03T12:21:48.555Z,95499.31
2022-12-03T12:22:51.729Z,95500.09
2022-12-03T12:23:53.555Z,95502.44
2022-12-03T12:24:57.735Z,95497.03
2022-12-03T12:26:06.421Z,95503.47
2022-12-03T12:27:11.308Z,95501.91
2022-12-03T12:28:14.178Z,95503.44
2022-12-03T12:29:16.164Z,95493.75
2022-12-03T12:30:21.612Z,95496.06
2022-12-03T12:31:25.936Z,95501.44
2022-12-03T12:32:32.969Z,95494.78
2022-12-03T12:33:35.447Z,95496.28
2022-12-03T12:34:38.916Z,95501.28
2022-12-03T12:35:42.396Z,95498.56
2022-12-03T12:36:44.285Z,95503.56
2022-12-03T12:37:59.173Z,95506.25
2022-12-03T12:39:01.735Z,95498.16
2022-12-03T12:40:13.496Z,95498.56
2022-12-03T12:41:16.451Z,95496.28
2022-12-03T12:42:30.095Z,95496.28
2022-12-03T12:43:34.888Z,95493.19
2022-12-03T12:44:36.790Z,95493.19
2022-12-03T12:45:42.363Z,95493.19